Time;durP1;ratioP1;P1;durP2;ratioP2;P2;SDS_P1;SDS_P2;PMS_P1;PMS_P2;Temp;Humidity;BMP_temperature;BMP_pressure;BME280_temperature;BME280_humidity;BME280_pressure;Samples;Min_cycle;Max_cycle;Signal;HPM_P1;HPM_P2
2023/06/16 00:00:17;;;;;;;1.10;1.00;;;11.20;57.40;;;;;;5032785;28;20516;-46
2023/06/16 00:02:50;;;;;;;0.77;0.77;;;11.20;57.50;;;;;;5032825;28;20228;-45
2023/06/16 00:05:21;;;;;;;0.80;0.80;;;11.30;57.50;;;;;;5032862;28;20203;-50
2023/06/16 00:07:52;;;;;;;1.13;1.02;;;11.20;57.50;;;;;;5032618;28;20262;-46
2023/06/16 00:10:22;;;;;;;1.02;0.93;;;11.30;57.60;;;;;;5072697;28;20195;-45
2023/06/16 00:12:55;;;;;;;1.13;0.80;;;11.30;57.60;;;;;;5072325;28;20658;-45
2023/06/16 00:15:26;;;;;;;0.85;0.85;;;11.30;57.70;;;;;;5071988;28;20595;-47
2023/06/16 00:17:56;;;;;;;1.02;0.85;;;11.30;57.70;;;;;;5072380;28;20298;-51
2023/06/16 00:20:27;;;;;;;0.88;0.80;;;11.40;57.70;;;;;;5068060;28;20192;-46
2023/06/16 00:22:58;;;;;;;1.17;0.80;;;11.40;57.70;;;;;;5052286;28;20265;-46
2023/06/16 00:25:29;;;;;;;0.70;0.70;;;11.40;57.70;;;;;;5052021;28;20195;-47
2023/06/16 00:28:01;;;;;;;0.80;0.80;;;11.40;57.70;;;;;;5051695;28;20227;-47
2023/06/16 00:30:32;;;;;;;0.93;0.88;;;11.40;57.70;;;;;;5051770;28;20195;-46
2023/06/16 00:33:03;;;;;;;0.95;0.80;;;11.40;57.70;;;;;;5051892;28;20702;-46
2023/06/16 00:35:33;;;;;;;0.90;0.90;;;11.40;57.70;;;;;;5051790;28;20199;-48
2023/06/16 00:38:04;;;;;;;1.10;1.00;;;11.50;57.80;;;;;;5052566;28;20199;-50
2023/06/16 00:40:34;;;;;;;1.00;0.93;;;11.50;57.80;;;;;;5071811;28;20207;-45
2023/06/16 00:43:07;;;;;;;0.80;0.80;;;11.50;57.80;;;;;;5071531;28;20226;-47
2023/06/16 00:45:38;;;;;;;0.70;0.70;;;11.50;57.80;;;;;;5071343;28;20563;-47
2023/06/16 00:48:09;;;;;;;0.82;0.82;;;11.50;57.90;;;;;;5071909;28;20682;-51
2023/06/16 00:50:40;;;;;;;0.90;0.80;;;11.50;58.50;;;;;;5072252;28;20202;-49
2023/06/16 00:53:11;;;;;;;0.88;0.88;;;11.60;58.00;;;;;;5071753;28;20669;-45
2023/06/16 00:55:42;;;;;;;0.93;0.85;;;11.60;58.00;;;;;;5063754;28;20214;-45
2023/06/16 00:58:14;;;;;;;0.95;0.88;;;11.60;58.00;;;;;;5051550;28;20210;-46
2023/06/16 01:00:47;;;;;;;1.08;0.95;;;11.60;58.10;;;;;;5051423;28;20199;-45
2023/06/16 01:03:19;;;;;;;0.70;0.70;;;11.60;58.00;;;;;;5051102;28;20223;-47
2023/06/16 01:05:49;;;;;;;1.17;1.08;;;11.70;58.10;;;;;;5051771;28;20199;-46
2023/06/16 01:08:28;;;;;;;0.70;0.70;;;11.70;58.10;;;;;;5055581;28;20225;-46
2023/06/16 01:11:05;;;;;;;0.80;0.77;;;11.70;58.10;;;;;;5071643;28;20210;-48
2023/06/16 01:13:46;;;;;;;1.00;0.80;;;11.70;58.10;;;;;;5066466;28;20214;-46
2023/06/16 01:16:21;;;;;;;0.95;0.82;;;11.80;58.10;;;;;;5050986;28;20238;-46
2023/06/16 01:18:54;;;;;;;1.10;1.00;;;11.80;58.10;;;;;;5051490;28;20241;-46
2023/06/16 01:21:37;;;;;;;1.00;0.90;;;11.80;58.20;;;;;;5051735;28;20195;-50
2023/06/16 01:24:15;;;;;;;1.00;0.90;;;11.80;58.20;;;;;;5051617;28;20230;-50
2023/06/16 01:26:49;;;;;;;0.90;0.80;;;11.90;58.20;;;;;;5051874;28;20219;-53
2023/06/16 01:29:23;;;;;;;1.80;1.00;;;11.90;58.30;;;;;;5051879;28;20230;-49
2023/06/16 01:31:57;;;;;;;1.00;0.88;;;11.90;58.30;;;;;;5051294;28;20227;-47
2023/06/16 01:34:29;;;;;;;1.00;0.90;;;11.90;58.30;;;;;;5051421;28;20663;-50
2023/06/16 01:37:00;;;;;;;0.70;0.70;;;12.00;58.40;;;;;;5051238;28;20223;-46
2023/06/16 01:39:34;;;;;;;1.25;0.90;;;12.00;58.40;;;;;;5064591;28;20662;-48
2023/06/16 01:42:05;;;;;;;0.80;0.80;;;12.00;58.40;;;;;;5071151;28;20294;-46
2023/06/16 01:44:36;;;;;;;1.02;0.80;;;12.10;58.40;;;;;;5071076;28;20633;-48
2023/06/16 01:47:07;;;;;;;1.55;0.80;;;12.10;58.40;;;;;;5070902;28;20716;-47
2023/06/16 01:49:38;;;;;;;0.93;0.93;;;12.10;58.40;;;;;;5074358;28;20668;-48
2023/06/16 01:52:11;;;;;;;1.10;1.00;;;12.20;58.40;;;;;;5074842;28;20206;-49
2023/06/16 01:54:43;;;;;;;0.90;0.90;;;12.20;58.40;;;;;;5075252;28;20194;-46
2023/06/16 01:57:14;;;;;;;0.95;0.88;;;12.20;58.40;;;;;;5075129;28;20214;-46
2023/06/16 01:59:45;;;;;;;0.60;0.60;;;12.20;58.40;;;;;;5073858;28;20195;-47
2023/06/16 02:02:20;;;;;;;1.02;0.90;;;12.30;58.40;;;;;;5053664;28;20558;-50
2023/06/16 02:04:52;;;;;;;0.85;0.80;;;12.30;58.40;;;;;;5054956;28;20219;-46
2023/06/16 02:07:31;;;;;;;0.77;0.77;;;12.30;58.50;;;;;;5054923;28;20302;-47
2023/06/16 02:10:06;;;;;;;1.25;0.93;;;12.30;58.40;;;;;;5072499;28;20202;-50
2023/06/16 02:12:37;;;;;;;1.00;0.90;;;12.40;58.60;;;;;;5074965;28;20194;-48
2023/06/16 02:15:09;;;;;;;0.70;0.70;;;12.40;58.50;;;;;;5074376;28;20206;-46
2023/06/16 02:17:45;;;;;;;0.73;0.70;;;12.40;58.50;;;;;;5074215;28;20214;-47
2023/06/16 02:20:16;;;;;;;0.75;0.75;;;12.50;58.60;;;;;;5067809;28;20279;-48
2023/06/16 02:22:47;;;;;;;0.93;0.90;;;12.50;58.60;;;;;;5054877;28;20196;-49
2023/06/16 02:25:19;;;;;;;1.00;0.90;;;12.50;58.60;;;;;;5054438;28;20238;-47
2023/06/16 02:27:50;;;;;;;0.70;0.70;;;12.50;58.60;;;;;;5053952;28;20220;-48
2023/06/16 02:30:21;;;;;;;0.77;0.77;;;12.60;58.60;;;;;;5054592;28;20199;-47
2023/06/16 02:32:52;;;;;;;0.98;0.90;;;12.60;58.60;;;;;;5054349;28;20195;-49
2023/06/16 02:35:22;;;;;;;1.38;0.70;;;12.60;58.60;;;;;;5054200;28;20286;-46
2023/06/16 02:37:55;;;;;;;0.93;0.85;;;12.70;58.60;;;;;;5053824;28;20224;-47
2023/06/16 02:40:28;;;;;;;0.80;0.80;;;12.70;58.60;;;;;;5074459;28;20206;-49
2023/06/16 02:42:58;;;;;;;1.08;0.82;;;12.80;58.70;;;;;;5074414;28;20194;-47
2023/06/16 02:45:29;;;;;;;0.60;0.60;;;12.80;58.70;;;;;;5074043;28;20202;-46
2023/06/16 02:47:59;;;;;;;0.70;0.70;;;12.80;58.70;;;;;;5074464;28;20219;-50
2023/06/16 02:50:30;;;;;;;0.98;0.85;;;12.80;58.70;;;;;;5073729;28;20202;-49
2023/06/16 02:53:01;;;;;;;0.70;0.70;;;12.90;59.00;;;;;;5073608;28;20202;-48
2023/06/16 02:55:33;;;;;;;0.70;0.70;;;12.90;58.80;;;;;;5073779;28;20285;-51
2023/06/16 02:58:04;;;;;;;0.73;0.70;;;13.00;58.70;;;;;;5060960;28;20199;-51
2023/06/16 03:00:35;;;;;;;0.80;0.70;;;13.00;58.70;;;;;;5053304;28;20196;-52
2023/06/16 03:03:05;;;;;;;0.60;0.60;;;13.00;58.70;;;;;;5053178;28;20184;-52
2023/06/16 03:05:36;;;;;;;0.80;0.80;;;13.10;58.70;;;;;;5053798;28;20203;-53
2023/06/16 03:08:07;;;;;;;0.70;0.70;;;13.10;58.70;;;;;;5055615;28;20203;-51
2023/06/16 03:10:39;;;;;;;0.80;0.80;;;13.20;58.70;;;;;;5065635;28;20188;-47
2023/06/16 03:13:10;;;;;;;0.88;0.88;;;13.20;58.70;;;;;;5053719;28;20199;-50
2023/06/16 03:15:40;;;;;;;0.68;0.68;;;13.20;58.70;;;;;;5053515;28;20266;-50
2023/06/16 03:18:11;;;;;;;1.02;0.82;;;13.30;58.70;;;;;;5053048;28;20196;-50
2023/06/16 03:20:45;;;;;;;0.70;0.63;;;13.30;58.70;;;;;;5053789;28;20192;-51
2023/06/16 03:23:16;;;;;;;0.70;0.70;;;13.30;58.70;;;;;;5053765;28;20207;-55
2023/06/16 03:25:48;;;;;;;0.68;0.65;;;13.40;58.80;;;;;;5053411;28;20196;-52
2023/06/16 03:28:19;;;;;;;0.73;0.70;;;13.40;58.70;;;;;;5053801;28;20210;-47
2023/06/16 03:30:52;;;;;;;0.60;0.60;;;13.50;58.80;;;;;;5053126;28;20253;-53
2023/06/16 03:33:23;;;;;;;0.60;0.60;;;13.50;58.70;;;;;;5053534;28;20191;-54
2023/06/16 03:35:53;;;;;;;0.80;0.80;;;13.50;58.60;;;;;;5053256;28;20203;-54
2023/06/16 03:38:24;;;;;;;0.70;0.70;;;13.60;58.70;;;;;;5057207;28;20199;-53
2023/06/16 03:40:56;;;;;;;0.60;0.60;;;13.60;58.60;;;;;;5073421;28;20268;-54
2023/06/16 03:43:27;;;;;;;0.70;0.70;;;13.70;58.60;;;;;;5073112;28;20650;-50
2023/06/16 03:45:57;;;;;;;0.95;0.93;;;13.70;58.50;;;;;;5072692;28;20222;-52
2023/06/16 03:48:28;;;;;;;1.05;0.95;;;13.70;58.50;;;;;;5073466;28;20205;-51
2023/06/16 03:50:59;;;;;;;0.68;0.68;;;13.70;58.50;;;;;;5072489;28;20708;-49
2023/06/16 03:53:29;;;;;;;1.08;0.73;;;13.80;58.50;;;;;;5072151;28;20655;-48
2023/06/16 03:56:02;;;;;;;0.73;0.73;;;13.90;58.50;;;;;;5072400;28;20215;-48
2023/06/16 03:58:33;;;;;;;0.80;0.80;;;13.90;58.50;;;;;;5072373;28;20205;-47
2023/06/16 04:01:03;;;;;;;1.02;0.80;;;13.90;58.40;;;;;;5072419;28;20194;-49
2023/06/16 04:03:34;;;;;;;0.82;0.82;;;14.00;58.40;;;;;;5072502;28;20226;-47
2023/06/16 04:06:05;;;;;;;1.05;0.95;;;14.00;58.50;;;;;;5059854;28;20234;-46
2023/06/16 04:08:36;;;;;;;0.80;0.80;;;14.00;58.50;;;;;;5058569;28;20214;-47
2023/06/16 04:11:09;;;;;;;0.98;0.73;;;14.00;58.40;;;;;;5072013;28;20195;-47
2023/06/16 04:13:39;;;;;;;1.00;0.90;;;14.10;58.50;;;;;;5072417;28;20199;-47
2023/06/16 04:16:10;;;;;;;0.82;0.80;;;14.10;58.40;;;;;;5072245;28;20706;-46
2023/06/16 04:18:41;;;;;;;1.55;1.10;;;14.20;58.40;;;;;;5072363;28;20198;-48
2023/06/16 04:21:11;;;;;;;1.13;0.85;;;14.20;58.40;;;;;;5072558;28;20202;-47
2023/06/16 04:23:42;;;;;;;1.20;1.00;;;14.20;58.40;;;;;;5056709;28;20200;-48
2023/06/16 04:26:19;;;;;;;1.40;1.10;;;14.30;58.40;;;;;;5051888;28;20212;-50
2023/06/16 04:28:53;;;;;;;1.67;1.27;;;14.30;58.40;;;;;;5051961;28;20195;-46
2023/06/16 04:31:28;;;;;;;1.10;1.00;;;14.30;58.40;;;;;;5052247;28;20191;-47
2023/06/16 04:33:58;;;;;;;2.17;1.10;;;14.30;58.30;;;;;;5052190;28;20210;-47
2023/06/16 04:36:29;;;;;;;1.45;1.20;;;14.40;58.30;;;;;;5052105;28;20215;-48
2023/06/16 04:39:00;;;;;;;1.70;1.05;;;14.40;58.40;;;;;;5061056;28;20246;-47
2023/06/16 04:41:35;;;;;;;1.30;1.20;;;14.40;58.30;;;;;;5072057;28;20198;-47
2023/06/16 04:44:06;;;;;;;1.20;1.10;;;14.40;58.30;;;;;;5071986;28;20222;-46
2023/06/16 04:46:37;;;;;;;1.30;1.20;;;14.40;58.30;;;;;;5071486;28;20628;-49
2023/06/16 04:49:09;;;;;;;1.63;1.20;;;14.40;58.20;;;;;;5071895;28;20253;-50
2023/06/16 04:51:39;;;;;;;1.70;1.35;;;14.40;58.30;;;;;;5071373;28;20198;-49
2023/06/16 04:54:10;;;;;;;1.58;1.30;;;14.40;58.30;;;;;;5071584;28;20264;-47
2023/06/16 04:56:43;;;;;;;1.77;1.30;;;14.40;58.30;;;;;;5071806;28;20215;-49
2023/06/16 04:59:13;;;;;;;1.70;1.30;;;14.40;58.20;;;;;;5071639;28;20229;-48
2023/06/16 05:01:44;;;;;;;1.60;1.40;;;14.40;58.20;;;;;;5071673;28;20206;-49
2023/06/16 05:04:14;;;;;;;1.50;1.17;;;14.40;58.20;;;;;;5071669;28;20225;-47
2023/06/16 05:16:52;;;;;;;1.30;1.20;;;14.40;57.90;;;;;;5031534;28;20226;-51
2023/06/16 05:19:23;;;;;;;1.52;1.40;;;14.40;57.90;;;;;;5031876;28;20258;-51
2023/06/16 05:21:53;;;;;;;1.58;1.27;;;14.40;58.00;;;;;;5031995;28;20219;-48
2023/06/16 05:24:24;;;;;;;1.52;1.38;;;14.40;58.00;;;;;;5035544;28;20273;-47
2023/06/16 05:26:55;;;;;;;1.65;1.30;;;14.40;58.00;;;;;;5035459;28;20754;-49
2023/06/16 05:29:25;;;;;;;1.85;1.65;;;14.40;58.00;;;;;;5036049;28;20257;-49
2023/06/16 05:31:58;;;;;;;1.23;1.10;;;14.40;58.00;;;;;;5037539;28;20196;-48
2023/06/16 05:34:28;;;;;;;2.05;1.65;;;14.40;57.90;;;;;;5055551;28;20655;-52
2023/06/16 05:36:59;;;;;;;1.95;1.50;;;14.40;57.90;;;;;;5055687;28;20273;-48
2023/06/16 05:39:29;;;;;;;1.88;1.67;;;14.40;57.80;;;;;;5064057;28;20237;-52
2023/06/16 05:42:00;;;;;;;1.58;1.40;;;14.40;57.70;;;;;;5035316;28;20196;-51
2023/06/16 05:44:30;;;;;;;1.40;1.30;;;14.40;57.70;;;;;;5035224;28;20613;-49
2023/06/16 05:47:03;;;;;;;1.83;1.45;;;14.30;57.60;;;;;;5035047;28;20224;-47
2023/06/16 05:49:33;;;;;;;1.67;1.58;;;14.30;57.50;;;;;;5036108;28;20246;-53
2023/06/16 05:52:05;;;;;;;1.20;1.10;;;14.30;57.50;;;;;;5035333;28;20203;-48
2023/06/16 05:54:36;;;;;;;2.28;1.35;;;14.30;57.50;;;;;;5035254;28;20577;-52
2023/06/16 05:57:07;;;;;;;1.63;1.40;;;14.30;57.50;;;;;;5035018;28;20623;-51
2023/06/16 05:59:38;;;;;;;1.60;1.50;;;14.30;57.50;;;;;;5034878;28;20250;-49
2023/06/16 06:02:11;;;;;;;1.67;1.55;;;14.30;57.50;;;;;;5034893;28;20656;-53
2023/06/16 06:04:41;;;;;;;2.00;1.45;;;14.30;57.50;;;;;;5034950;28;20228;-51
2023/06/16 06:07:12;;;;;;;1.70;1.38;;;14.30;57.60;;;;;;5034877;28;20212;-48
2023/06/16 06:09:43;;;;;;;1.70;1.60;;;14.30;57.50;;;;;;5064596;28;20202;-49
2023/06/16 06:12:14;;;;;;;1.83;1.52;;;14.20;57.40;;;;;;5058771;28;20675;-51
2023/06/16 06:14:45;;;;;;;1.50;1.40;;;14.20;57.40;;;;;;5054643;28;20214;-54
2023/06/16 06:17:20;;;;;;;1.67;1.58;;;14.20;57.40;;;;;;5054625;28;20230;-53
2023/06/16 06:19:51;;;;;;;1.90;1.60;;;14.20;57.40;;;;;;5053649;28;20214;-56
2023/06/16 06:22:21;;;;;;;1.75;1.58;;;14.20;57.40;;;;;;5054543;28;20214;-49
2023/06/16 06:24:52;;;;;;;1.77;1.60;;;14.20;57.30;;;;;;5054430;28;20691;-51
2023/06/16 06:27:23;;;;;;;2.20;2.00;;;14.20;57.30;;;;;;5054242;28;20223;-50
2023/06/16 06:29:53;;;;;;;2.60;1.80;;;14.10;57.40;;;;;;5054435;28;20195;-49
2023/06/16 06:32:27;;;;;;;2.33;1.77;;;14.10;57.40;;;;;;5054592;28;20196;-49
2023/06/16 06:34:58;;;;;;;2.30;1.80;;;14.10;57.30;;;;;;5053499;28;20195;-47
2023/06/16 06:37:30;;;;;;;2.17;1.95;;;14.10;57.30;;;;;;5053841;28;20222;-51
2023/06/16 06:40:01;;;;;;;2.45;1.90;;;14.10;57.30;;;;;;5071899;28;20194;-51
2023/06/16 06:42:31;;;;;;;2.38;2.03;;;14.00;57.30;;;;;;5074271;28;20191;-50
2023/06/16 06:45:02;;;;;;;2.60;2.05;;;14.00;57.30;;;;;;5074080;28;20222;-51
2023/06/16 06:47:35;;;;;;;2.72;2.45;;;14.00;57.30;;;;;;5073859;28;20636;-48
2023/06/16 06:50:05;;;;;;;2.30;2.10;;;14.00;57.30;;;;;;5074455;28;20195;-53
2023/06/16 06:52:36;;;;;;;2.28;2.08;;;14.00;57.30;;;;;;5073859;28;20252;-52
2023/06/16 06:55:08;;;;;;;2.33;2.00;;;14.00;57.30;;;;;;5073877;28;20252;-52
2023/06/16 06:57:38;;;;;;;2.13;1.92;;;14.00;57.30;;;;;;5073803;28;20214;-54
2023/06/16 07:00:10;;;;;;;2.47;2.10;;;13.90;57.30;;;;;;5073933;28;20201;-55
2023/06/16 07:02:43;;;;;;;2.65;2.17;;;13.90;57.30;;;;;;5073815;28;20206;-49
2023/06/16 07:05:13;;;;;;;2.08;1.90;;;13.90;57.30;;;;;;5073657;28;20329;-49
2023/06/16 07:07:44;;;;;;;2.42;2.05;;;13.90;57.30;;;;;;5073866;28;20223;-51
2023/06/16 07:10:15;;;;;;;3.70;2.53;;;13.90;57.30;;;;;;5067307;28;20284;-50
2023/06/16 07:12:45;;;;;;;3.60;2.45;;;13.80;57.20;;;;;;5053478;28;20199;-51
2023/06/16 07:15:16;;;;;;;2.47;2.15;;;13.80;57.20;;;;;;5053585;28;20206;-52
2023/06/16 07:17:49;;;;;;;2.20;2.00;;;13.80;57.20;;;;;;5053121;28;20220;-51
2023/06/16 07:20:19;;;;;;;3.72;2.28;;;13.80;57.30;;;;;;5053050;28;20192;-49
2023/06/16 07:22:50;;;;;;;3.10;2.45;;;13.80;57.20;;;;;;5053672;28;20195;-52
2023/06/16 07:25:21;;;;;;;2.60;2.40;;;13.70;57.20;;;;;;5053301;28;20246;-53
2023/06/16 07:27:51;;;;;;;4.38;3.00;;;13.70;57.20;;;;;;5052806;28;20233;-56
2023/06/16 07:30:22;;;;;;;3.47;2.70;;;13.70;57.30;;;;;;5053130;28;20651;-54
2023/06/16 07:32:54;;;;;;;4.28;3.10;;;13.70;57.30;;;;;;5053260;28;20188;-53
2023/06/16 07:35:25;;;;;;;3.40;2.90;;;13.70;57.30;;;;;;5053202;28;20202;-55
2023/06/16 07:37:56;;;;;;;4.10;2.97;;;13.70;57.30;;;;;;5052906;28;20216;-50
2023/06/16 07:40:26;;;;;;;3.08;2.63;;;13.70;57.30;;;;;;5052439;28;20188;-55
2023/06/16 07:42:57;;;;;;;4.00;2.95;;;13.70;57.30;;;;;;5053005;28;20290;-52
2023/06/16 07:45:31;;;;;;;3.10;2.80;;;13.60;57.30;;;;;;5052007;28;20227;-52
2023/06/16 07:48:09;;;;;;;3.75;2.88;;;13.60;57.20;;;;;;5052147;28;20212;-49
2023/06/16 07:50:40;;;;;;;4.03;3.20;;;13.60;57.30;;;;;;5052901;28;20199;-52
2023/06/16 07:53:11;;;;;;;3.53;2.63;;;13.60;57.30;;;;;;5052767;28;20245;-51
2023/06/16 07:55:41;;;;;;;3.47;2.97;;;13.50;57.30;;;;;;5052702;28;20191;-52
2023/06/16 07:58:12;;;;;;;4.05;3.13;;;13.50;57.20;;;;;;5052567;28;20191;-54
2023/06/16 08:00:43;;;;;;;3.90;2.95;;;13.50;57.30;;;;;;5053042;28;20199;-52
2023/06/16 08:03:15;;;;;;;3.40;2.88;;;13.60;57.30;;;;;;5052816;28;20258;-55
2023/06/16 08:05:46;;;;;;;3.67;3.15;;;13.50;57.20;;;;;;5052340;28;20699;-53
2023/06/16 08:08:21;;;;;;;3.83;3.08;;;13.50;57.20;;;;;;5055261;28;20655;-54
2023/06/16 08:10:52;;;;;;;3.65;2.92;;;13.50;57.20;;;;;;5051883;28;20248;-54
2023/06/16 08:13:22;;;;;;;3.72;3.30;;;13.40;57.20;;;;;;5052454;28;20199;-53
2023/06/16 08:15:53;;;;;;;4.22;3.22;;;13.40;57.20;;;;;;5051765;28;20183;-53
2023/06/16 08:18:26;;;;;;;3.83;2.80;;;13.40;57.20;;;;;;5052258;28;20194;-57
2023/06/16 08:20:57;;;;;;;4.07;2.92;;;13.40;57.20;;;;;;5052311;28;20239;-54
2023/06/16 08:23:28;;;;;;;3.95;2.88;;;13.40;57.20;;;;;;5052340;28;20195;-56
2023/06/16 08:25:59;;;;;;;4.28;3.20;;;13.40;57.30;;;;;;5052500;28;20241;-52
2023/06/16 08:28:30;;;;;;;4.45;3.45;;;13.30;57.20;;;;;;5052049;28;20282;-57
2023/06/16 08:31:01;;;;;;;3.88;3.13;;;13.30;57.20;;;;;;5052321;28;20283;-55
2023/06/16 08:33:34;;;;;;;3.50;3.15;;;13.30;57.20;;;;;;5052210;28;20192;-52
2023/06/16 08:36:05;;;;;;;3.42;3.10;;;13.30;57.20;;;;;;5052006;28;20649;-49
2023/06/16 08:38:36;;;;;;;3.72;3.33;;;13.20;57.20;;;;;;5057443;28;20199;-48
2023/06/16 08:41:10;;;;;;;3.60;3.03;;;13.20;57.10;;;;;;5071309;28;20205;-51
2023/06/16 08:43:41;;;;;;;3.90;3.33;;;13.20;57.10;;;;;;5071493;28;20658;-48
2023/06/16 08:46:11;;;;;;;4.07;3.17;;;13.20;57.20;;;;;;5070897;28;20714;-49
2023/06/16 08:48:44;;;;;;;3.92;3.30;;;13.20;57.10;;;;;;5071985;28;20203;-51
2023/06/16 08:51:18;;;;;;;3.47;3.15;;;13.20;57.20;;;;;;5071341;28;20191;-49
2023/06/16 08:53:50;;;;;;;3.65;3.10;;;13.20;57.20;;;;;;5071351;28;20230;-47
2023/06/16 08:56:21;;;;;;;4.60;3.25;;;13.10;57.10;;;;;;5071861;28;20211;-48
2023/06/16 08:58:53;;;;;;;4.10;3.45;;;13.10;57.10;;;;;;5071514;28;20666;-48
2023/06/16 09:01:24;;;;;;;4.47;3.30;;;13.10;57.10;;;;;;5071399;28;20692;-49
2023/06/16 09:03:57;;;;;;;3.50;2.80;;;13.10;57.10;;;;;;5071285;28;20201;-47
2023/06/16 09:06:29;;;;;;;3.75;2.95;;;13.00;57.00;;;;;;5057085;28;20255;-50
2023/06/16 09:08:59;;;;;;;3.22;2.83;;;13.00;57.00;;;;;;5060591;28;20199;-47
2023/06/16 09:11:30;;;;;;;3.90;3.05;;;13.00;57.10;;;;;;5071630;28;20725;-47
2023/06/16 09:14:10;;;;;;;3.88;3.45;;;13.00;57.10;;;;;;5071452;28;20646;-50
2023/06/16 09:16:42;;;;;;;4.15;3.30;;;13.00;57.10;;;;;;5071525;28;20225;-50
2023/06/16 09:19:16;;;;;;;3.80;3.10;;;13.00;57.10;;;;;;5070880;28;20190;-47
2023/06/16 09:21:49;;;;;;;4.20;3.42;;;13.00;57.10;;;;;;5050264;28;20187;-50
2023/06/16 09:24:26;;;;;;;3.22;2.92;;;12.90;57.00;;;;;;5051414;28;20219;-49
2023/06/16 09:27:01;;;;;;;4.43;3.30;;;12.90;57.00;;;;;;5051339;28;20230;-51
2023/06/16 09:29:32;;;;;;;3.30;2.75;;;12.90;57.00;;;;;;5051419;28;20202;-47
2023/06/16 09:32:10;;;;;;;3.80;3.15;;;12.90;57.10;;;;;;5051446;28;20209;-51
2023/06/16 09:34:43;;;;;;;3.42;2.75;;;12.90;57.00;;;;;;5051516;28;20203;-47
2023/06/16 09:37:14;;;;;;;3.40;2.97;;;12.80;57.00;;;;;;5051461;28;20590;-52
2023/06/16 09:39:45;;;;;;;4.10;3.05;;;12.80;57.00;;;;;;5066738;28;20202;-47
2023/06/16 09:42:16;;;;;;;3.65;2.88;;;12.80;57.00;;;;;;5071365;28;20207;-48
2023/06/16 09:44:47;;;;;;;2.90;2.60;;;12.80;57.00;;;;;;5071257;28;20195;-47
2023/06/16 09:47:23;;;;;;;3.42;2.88;;;12.80;57.00;;;;;;5054039;28;20222;-50
2023/06/16 09:49:58;;;;;;;3.50;2.90;;;12.80;57.00;;;;;;5051657;28;20195;-48
2023/06/16 09:52:29;;;;;;;3.47;2.67;;;12.70;57.00;;;;;;5051296;28;20199;-47
2023/06/16 09:55:00;;;;;;;3.65;2.97;;;12.70;57.00;;;;;;5051324;28;20238;-47
2023/06/16 09:57:32;;;;;;;3.13;2.53;;;12.70;57.00;;;;;;5051174;28;20629;-48
2023/06/16 10:00:05;;;;;;;3.63;2.70;;;12.70;57.00;;;;;;5051308;28;20199;-51
2023/06/16 10:02:39;;;;;;;4.22;2.90;;;12.70;57.00;;;;;;5051012;28;20195;-48
2023/06/16 10:05:16;;;;;;;3.08;2.70;;;12.70;57.00;;;;;;5051253;28;20195;-50
2023/06/16 10:07:47;;;;;;;3.00;2.45;;;12.70;57.00;;;;;;5051013;28;20277;-49
2023/06/16 10:10:19;;;;;;;3.58;3.00;;;12.60;56.90;;;;;;5073192;28;20203;-47
2023/06/16 10:12:53;;;;;;;3.08;2.70;;;12.60;57.00;;;;;;5057334;28;20195;-47
2023/06/16 10:15:25;;;;;;;3.20;2.70;;;12.60;56.90;;;;;;5055009;28;20678;-49
2023/06/16 10:18:02;;;;;;;3.00;2.65;;;12.60;56.90;;;;;;5054244;28;20683;-52
2023/06/16 10:20:37;;;;;;;3.55;2.72;;;12.60;56.90;;;;;;5054277;28;20285;-48
2023/06/16 10:23:07;;;;;;;3.53;2.92;;;12.60;56.90;;;;;;5054429;28;20792;-51
2023/06/16 10:25:39;;;;;;;2.80;2.60;;;12.50;56.90;;;;;;5054663;28;20655;-52
2023/06/16 10:28:13;;;;;;;3.40;2.85;;;12.50;56.90;;;;;;5054552;28;20199;-51
2023/06/16 10:30:45;;;;;;;3.58;2.97;;;12.50;56.90;;;;;;5054255;28;20710;-50
2023/06/16 10:33:20;;;;;;;3.42;2.80;;;12.50;56.90;;;;;;5054145;28;20252;-48
2023/06/16 10:35:56;;;;;;;2.63;2.40;;;12.50;56.90;;;;;;5054109;28;20199;-51
2023/06/16 10:38:37;;;;;;;4.70;2.97;;;12.50;56.90;;;;;;5058584;28;20201;-49
2023/06/16 10:41:12;;;;;;;3.20;2.42;;;12.50;57.00;;;;;;5074180;28;20264;-50
2023/06/16 10:43:43;;;;;;;3.03;2.78;;;12.50;56.90;;;;;;5074451;28;20203;-53
2023/06/16 10:46:17;;;;;;;3.30;2.60;;;12.50;56.90;;;;;;5073873;28;20230;-49
2023/06/16 10:49:20;;;;;;;2.65;2.35;;;12.40;56.90;;;;;;5074365;28;20600;-50
2023/06/16 10:51:56;;;;;;;3.45;2.42;;;12.40;57.00;;;;;;5074282;28;20281;-52
2023/06/16 10:54:48;;;;;;;3.55;2.78;;;12.40;56.90;;;;;;5073809;28;20205;-51
2023/06/16 10:57:19;;;;;;;2.78;2.42;;;12.40;56.90;;;;;;5073571;28;20276;-50
2023/06/16 11:00:01;;;;;;;3.40;2.55;;;12.40;56.90;;;;;;5073713;28;20674;-54
2023/06/16 11:05:22;;;;;;;3.50;2.60;;;12.30;56.90;;;;;;5048803;28;20200;-51
2023/06/16 11:08:18;;;;;;;3.83;2.60;;;12.30;56.90;;;;;;5053384;28;20277;-49
2023/06/16 11:10:52;;;;;;;0.35;0.35;;;12.30;56.90;;;;;;5073322;28;20210;-50
2023/06/16 11:13:27;;;;;;;0.70;0.70;;;12.30;56.90;;;;;;5068352;28;20623;-51
2023/06/16 11:15:58;;;;;;;0.80;0.80;;;12.30;57.00;;;;;;5053459;28;20230;-50
2023/06/16 11:18:31;;;;;;;0.60;0.60;;;12.40;57.60;;;;;;5053314;28;20192;-52
2023/06/16 11:21:03;;;;;;;0.60;0.60;;;12.30;56.90;;;;;;5052934;28;20200;-50
2023/06/16 11:23:36;;;;;;;0.40;0.40;;;12.30;56.90;;;;;;5053402;28;20196;-50
2023/06/16 11:26:09;;;;;;;0.50;0.50;;;12.40;56.90;;;;;;5053128;28;20219;-51
2023/06/16 11:28:41;;;;;;;0.43;0.43;;;12.40;56.90;;;;;;5053612;28;20562;-52
2023/06/16 11:31:12;;;;;;;0.30;0.30;;;12.40;56.70;;;;;;5053274;28;20199;-54
2023/06/16 11:33:43;;;;;;;0.40;0.40;;;12.40;56.70;;;;;;5053008;28;20206;-49
2023/06/16 11:36:22;;;;;;;0.30;0.30;;;12.40;56.70;;;;;;5053047;28;20224;-49
2023/06/16 11:38:56;;;;;;;0.40;0.40;;;12.40;56.60;;;;;;5061046;28;20198;-55
2023/06/16 11:41:29;;;;;;;0.40;0.40;;;12.40;56.60;;;;;;5073392;28;20195;-49
2023/06/16 11:44:00;;;;;;;0.35;0.35;;;12.40;56.60;;;;;;5059626;28;20192;-52
2023/06/16 11:46:33;;;;;;;0.30;0.30;;;12.30;56.50;;;;;;5052569;28;20599;-50
2023/06/16 11:49:05;;;;;;;0.30;0.30;;;12.40;56.50;;;;;;5053448;28;20227;-51
2023/06/16 11:51:36;;;;;;;0.30;0.30;;;12.40;56.50;;;;;;5053112;28;20565;-52
2023/06/16 11:54:08;;;;;;;0.30;0.30;;;12.30;56.40;;;;;;5053200;28;20198;-50
2023/06/16 11:56:40;;;;;;;0.40;0.40;;;12.30;56.40;;;;;;5052873;28;20226;-50
2023/06/16 11:59:13;;;;;;;0.32;0.32;;;12.30;56.40;;;;;;5052853;28;20238;-51
2023/06/16 12:01:44;;;;;;;0.30;0.30;;;12.30;56.40;;;;;;5052756;28;20196;-49
2023/06/16 12:04:15;;;;;;;0.28;0.28;;;12.30;56.40;;;;;;5052426;28;20191;-48
2023/06/16 12:06:46;;;;;;;0.25;0.25;;;12.30;56.30;;;;;;5032558;28;20581;-48
2023/06/16 12:09:19;;;;;;;0.20;0.20;;;12.30;56.30;;;;;;5055210;28;20569;-51
2023/06/16 12:11:51;;;;;;;0.20;0.20;;;12.30;56.30;;;;;;5072578;28;20570;-47
2023/06/16 12:14:24;;;;;;;0.20;0.20;;;12.30;56.40;;;;;;5072704;28;20195;-50
2023/06/16 12:16:54;;;;;;;0.20;0.20;;;12.30;56.30;;;;;;5072543;28;20261;-48
2023/06/16 12:19:25;;;;;;;0.20;0.20;;;12.20;56.40;;;;;;5072485;28;20206;-52
2023/06/16 12:22:00;;;;;;;0.20;0.20;;;12.20;56.30;;;;;;5072441;28;20647;-49
2023/06/16 12:24:33;;;;;;;0.25;0.25;;;12.20;56.30;;;;;;5072459;28;20206;-48
2023/06/16 12:27:05;;;;;;;0.25;0.25;;;12.30;56.90;;;;;;5071318;28;20317;-49
2023/06/16 12:29:36;;;;;;;0.20;0.20;;;12.20;56.30;;;;;;5051783;28;20191;-52
2023/06/16 12:32:07;;;;;;;0.20;0.20;;;12.20;56.20;;;;;;5051721;28;20203;-54
2023/06/16 12:34:38;;;;;;;0.28;0.28;;;12.20;56.20;;;;;;5052271;28;20192;-55
2023/06/16 12:37:10;;;;;;;0.30;0.30;;;12.20;56.20;;;;;;5052088;28;20220;-54
2023/06/16 12:39:43;;;;;;;0.20;0.20;;;12.20;56.20;;;;;;5067041;28;20195;-53
2023/06/16 12:42:14;;;;;;;0.20;0.20;;;12.20;56.20;;;;;;5072140;28;20195;-55
2023/06/16 12:44:46;;;;;;;0.20;0.20;;;12.20;56.20;;;;;;5072113;28;20191;-54
2023/06/16 12:47:18;;;;;;;0.20;0.20;;;12.20;56.20;;;;;;5071937;28;20586;-53
2023/06/16 12:49:49;;;;;;;0.13;0.13;;;12.10;56.10;;;;;;5072414;28;20206;-52
2023/06/16 12:52:20;;;;;;;0.20;0.20;;;12.20;56.20;;;;;;5072030;28;20203;-52
2023/06/16 12:54:53;;;;;;;0.20;0.20;;;12.10;56.10;;;;;;5072141;28;20624;-54
2023/06/16 12:57:25;;;;;;;0.20;0.20;;;12.10;56.10;;;;;;5071458;28;20207;-57
2023/06/16 12:59:56;;;;;;;0.20;0.20;;;12.10;56.10;;;;;;5071724;28;20243;-56
2023/06/16 13:02:26;;;;;;;0.25;0.25;;;12.10;56.10;;;;;;5071617;28;20198;-49
2023/06/16 13:04:57;;;;;;;0.20;0.20;;;12.10;56.10;;;;;;5071221;28;20206;-49
2023/06/16 13:07:28;;;;;;;0.20;0.20;;;12.10;56.10;;;;;;5050649;28;20272;-47
2023/06/16 13:10:00;;;;;;;0.20;0.20;;;12.10;56.10;;;;;;5068436;28;20206;-47
2023/06/16 13:12:31;;;;;;;0.20;0.20;;;12.00;56.00;;;;;;5071711;28;20195;-47
2023/06/16 13:15:01;;;;;;;0.10;0.10;;;12.10;56.70;;;;;;5061860;28;20195;-48
2023/06/16 13:17:32;;;;;;;0.20;0.20;;;12.00;56.00;;;;;;5050953;28;20211;-51
2023/06/16 13:20:03;;;;;;;0.20;0.20;;;12.00;56.00;;;;;;5051625;28;20199;-49
2023/06/16 13:22:33;;;;;;;0.25;0.25;;;12.00;56.00;;;;;;5051231;28;20241;-48
2023/06/16 13:25:06;;;;;;;0.10;0.10;;;12.00;56.10;;;;;;5051271;28;20196;-47